sensor_id;sensor_type;location;lat;lon;timestamp;P1;durP1;ratioP1;P2;durP2;ratioP2
5127;SDS011;2582;48.770;9.190;2023-07-30T00:00:34;2.13;;;1.90;;
5127;SDS011;2582;48.770;9.190;2023-07-30T00:03:00;2.37;;;1.63;;
5127;SDS011;2582;48.770;9.190;2023-07-30T00:05:25;4.83;;;2.10;;
5127;SDS011;2582;48.770;9.190;2023-07-30T00:07:51;1.80;;;1.60;;
5127;SDS011;2582;48.770;9.190;2023-07-30T00:10:17;1.83;;;1.33;;
5127;SDS011;2582;48.770;9.190;2023-07-30T00:12:43;2.10;;;1.90;;
5127;SDS011;2582;48.770;9.190;2023-07-30T00:15:08;1.67;;;1.20;;
5127;SDS011;2582;48.770;9.190;2023-07-30T00:17:34;1.80;;;1.00;;
5127;SDS011;2582;48.770;9.190;2023-07-30T00:19:59;1.30;;;0.70;;
5127;SDS011;2582;48.770;9.190;2023-07-30T00:22:25;1.53;;;1.10;;
5127;SDS011;2582;48.770;9.190;2023-07-30T00:24:51;1.43;;;1.20;;
5127;SDS011;2582;48.770;9.190;2023-07-30T00:27:16;1.67;;;1.13;;
5127;SDS011;2582;48.770;9.190;2023-07-30T00:29:42;1.50;;;1.40;;
5127;SDS011;2582;48.770;9.190;2023-07-30T00:32:07;2.30;;;1.60;;
5127;SDS011;2582;48.770;9.190;2023-07-30T00:34:33;3.00;;;1.97;;
5127;SDS011;2582;48.770;9.190;2023-07-30T00:36:58;2.33;;;2.07;;
5127;SDS011;2582;48.770;9.190;2023-07-30T00:39:24;2.10;;;1.73;;
5127;SDS011;2582;48.770;9.190;2023-07-30T00:41:49;3.83;;;1.70;;
5127;SDS011;2582;48.770;9.190;2023-07-30T00:44:15;2.33;;;1.70;;
5127;SDS011;2582;48.770;9.190;2023-07-30T00:46:41;1.80;;;1.60;;
5127;SDS011;2582;48.770;9.190;2023-07-30T00:49:06;2.20;;;2.00;;
5127;SDS011;2582;48.770;9.190;2023-07-30T00:51:33;2.37;;;2.00;;
5127;SDS011;2582;48.770;9.190;2023-07-30T00:53:59;2.20;;;1.80;;
5127;SDS011;2582;48.770;9.190;2023-07-30T00:56:26;2.70;;;2.27;;
5127;SDS011;2582;48.770;9.190;2023-07-30T00:58:51;2.93;;;1.80;;
5127;SDS011;2582;48.770;9.190;2023-07-30T01:01:18;2.47;;;2.03;;
5127;SDS011;2582;48.770;9.190;2023-07-30T01:03:43;3.70;;;3.27;;
5127;SDS011;2582;48.770;9.190;2023-07-30T01:06:10;3.30;;;2.80;;
5127;SDS011;2582;48.770;9.190;2023-07-30T01:08:35;3.67;;;2.90;;
5127;SDS011;2582;48.770;9.190;2023-07-30T01:11:01;2.87;;;2.67;;
5127;SDS011;2582;48.770;9.190;2023-07-30T01:13:28;3.20;;;2.80;;
5127;SDS011;2582;48.770;9.190;2023-07-30T01:15:55;3.73;;;2.63;;
5127;SDS011;2582;48.770;9.190;2023-07-30T01:18:21;2.70;;;2.50;;
5127;SDS011;2582;48.770;9.190;2023-07-30T01:20:46;4.90;;;3.33;;
5127;SDS011;2582;48.770;9.190;2023-07-30T01:23:12;3.67;;;3.33;;
5127;SDS011;2582;48.770;9.190;2023-07-30T01:25:37;6.17;;;3.63;;
5127;SDS011;2582;48.770;9.190;2023-07-30T01:28:05;3.10;;;2.90;;
5127;SDS011;2582;48.770;9.190;2023-07-30T01:30:42;3.60;;;3.30;;
5127;SDS011;2582;48.770;9.190;2023-07-30T01:33:10;4.17;;;3.40;;
5127;SDS011;2582;48.770;9.190;2023-07-30T01:35:36;3.40;;;3.10;;
5127;SDS011;2582;48.770;9.190;2023-07-30T01:38:03;3.53;;;3.10;;
5127;SDS011;2582;48.770;9.190;2023-07-30T01:40:30;5.30;;;4.10;;
5127;SDS011;2582;48.770;9.190;2023-07-30T01:42:57;3.30;;;3.00;;
5127;SDS011;2582;48.770;9.190;2023-07-30T01:45:22;4.60;;;3.57;;
5127;SDS011;2582;48.770;9.190;2023-07-30T01:47:48;4.53;;;3.03;;
5127;SDS011;2582;48.770;9.190;2023-07-30T01:50:13;4.33;;;3.93;;
5127;SDS011;2582;48.770;9.190;2023-07-30T01:52:39;4.00;;;3.70;;
5127;SDS011;2582;48.770;9.190;2023-07-30T01:55:04;3.73;;;3.30;;
5127;SDS011;2582;48.770;9.190;2023-07-30T01:57:31;5.97;;;4.37;;
5127;SDS011;2582;48.770;9.190;2023-07-30T01:59:56;3.37;;;2.97;;
5127;SDS011;2582;48.770;9.190;2023-07-30T02:02:22;3.60;;;3.30;;
5127;SDS011;2582;48.770;9.190;2023-07-30T02:04:47;3.90;;;3.47;;
5127;SDS011;2582;48.770;9.190;2023-07-30T02:07:13;5.23;;;3.80;;
5127;SDS011;2582;48.770;9.190;2023-07-30T02:09:38;3.37;;;3.07;;
5127;SDS011;2582;48.770;9.190;2023-07-30T02:12:04;3.60;;;3.30;;
5127;SDS011;2582;48.770;9.190;2023-07-30T02:14:30;4.00;;;3.50;;
5127;SDS011;2582;48.770;9.190;2023-07-30T02:16:55;6.20;;;3.50;;
5127;SDS011;2582;48.770;9.190;2023-07-30T02:19:21;5.67;;;4.17;;
5127;SDS011;2582;48.770;9.190;2023-07-30T02:21:46;4.00;;;3.50;;
5127;SDS011;2582;48.770;9.190;2023-07-30T02:24:12;4.00;;;3.00;;
5127;SDS011;2582;48.770;9.190;2023-07-30T02:26:38;4.03;;;3.63;;
5127;SDS011;2582;48.770;9.190;2023-07-30T02:29:04;4.93;;;3.80;;
5127;SDS011;2582;48.770;9.190;2023-07-30T02:31:29;4.10;;;3.70;;
5127;SDS011;2582;48.770;9.190;2023-07-30T02:33:55;3.80;;;3.03;;
5127;SDS011;2582;48.770;9.190;2023-07-30T02:36:21;3.83;;;3.50;;
5127;SDS011;2582;48.770;9.190;2023-07-30T02:38:47;4.30;;;3.47;;
5127;SDS011;2582;48.770;9.190;2023-07-30T02:41:13;3.53;;;3.20;;
5127;SDS011;2582;48.770;9.190;2023-07-30T02:43:38;5.13;;;3.27;;
5127;SDS011;2582;48.770;9.190;2023-07-30T02:46:04;4.20;;;3.80;;
5127;SDS011;2582;48.770;9.190;2023-07-30T02:48:29;3.03;;;2.73;;
5127;SDS011;2582;48.770;9.190;2023-07-30T02:50:55;5.50;;;3.13;;
5127;SDS011;2582;48.770;9.190;2023-07-30T02:53:20;3.67;;;2.70;;
5127;SDS011;2582;48.770;9.190;2023-07-30T02:55:46;4.90;;;3.87;;
5127;SDS011;2582;48.770;9.190;2023-07-30T02:58:11;2.97;;;2.77;;
5127;SDS011;2582;48.770;9.190;2023-07-30T03:00:37;4.13;;;2.73;;
5127;SDS011;2582;48.770;9.190;2023-07-30T03:03:03;4.10;;;3.70;;
5127;SDS011;2582;48.770;9.190;2023-07-30T03:05:29;3.97;;;3.67;;
5127;SDS011;2582;48.770;9.190;2023-07-30T03:07:55;5.13;;;3.80;;
5127;SDS011;2582;48.770;9.190;2023-07-30T03:10:20;3.30;;;3.00;;
5127;SDS011;2582;48.770;9.190;2023-07-30T03:12:46;4.67;;;3.70;;
5127;SDS011;2582;48.770;9.190;2023-07-30T03:15:11;4.20;;;3.67;;
5127;SDS011;2582;48.770;9.190;2023-07-30T03:17:37;4.23;;;3.40;;
5127;SDS011;2582;48.770;9.190;2023-07-30T03:20:02;3.47;;;3.17;;
5127;SDS011;2582;48.770;9.190;2023-07-30T03:22:29;3.03;;;2.73;;
5127;SDS011;2582;48.770;9.190;2023-07-30T03:24:55;3.30;;;2.77;;
5127;SDS011;2582;48.770;9.190;2023-07-30T03:27:20;2.93;;;2.70;;
5127;SDS011;2582;48.770;9.190;2023-07-30T03:29:46;3.37;;;3.07;;
5127;SDS011;2582;48.770;9.190;2023-07-30T03:32:11;6.37;;;3.43;;
5127;SDS011;2582;48.770;9.190;2023-07-30T03:34:37;3.23;;;2.97;;
5127;SDS011;2582;48.770;9.190;2023-07-30T03:37:02;3.50;;;2.80;;
5127;SDS011;2582;48.770;9.190;2023-07-30T03:39:28;3.50;;;2.80;;
5127;SDS011;2582;48.770;9.190;2023-07-30T03:41:54;3.40;;;3.10;;
5127;SDS011;2582;48.770;9.190;2023-07-30T03:44:19;3.00;;;2.80;;
5127;SDS011;2582;48.770;9.190;2023-07-30T03:46:45;3.07;;;2.80;;
5127;SDS011;2582;48.770;9.190;2023-07-30T03:49:11;3.53;;;3.23;;
5127;SDS011;2582;48.770;9.190;2023-07-30T03:51:37;3.93;;;3.23;;
5127;SDS011;2582;48.770;9.190;2023-07-30T03:54:03;4.27;;;3.50;;
5127;SDS011;2582;48.770;9.190;2023-07-30T03:56:29;4.40;;;3.23;;
5127;SDS011;2582;48.770;9.190;2023-07-30T03:58:55;4.13;;;3.47;;
5127;SDS011;2582;48.770;9.190;2023-07-30T04:01:21;3.83;;;3.53;;
5127;SDS011;2582;48.770;9.190;2023-07-30T04:03:46;4.30;;;2.90;;
5127;SDS011;2582;48.770;9.190;2023-07-30T04:06:12;3.70;;;3.07;;
5127;SDS011;2582;48.770;9.190;2023-07-30T04:08:37;3.30;;;2.90;;
5127;SDS011;2582;48.770;9.190;2023-07-30T04:11:03;3.70;;;3.10;;
5127;SDS011;2582;48.770;9.190;2023-07-30T04:13:29;3.70;;;3.40;;
5127;SDS011;2582;48.770;9.190;2023-07-30T04:15:54;3.40;;;3.10;;
5127;SDS011;2582;48.770;9.190;2023-07-30T04:18:20;3.90;;;3.13;;
5127;SDS011;2582;48.770;9.190;2023-07-30T04:20:47;2.73;;;2.53;;
5127;SDS011;2582;48.770;9.190;2023-07-30T04:23:13;3.73;;;2.60;;
5127;SDS011;2582;48.770;9.190;2023-07-30T04:25:38;4.20;;;2.77;;
5127;SDS011;2582;48.770;9.190;2023-07-30T04:28:04;2.53;;;2.30;;
5127;SDS011;2582;48.770;9.190;2023-07-30T04:30:29;3.70;;;2.87;;
5127;SDS011;2582;48.770;9.190;2023-07-30T04:32:55;2.63;;;2.43;;
5127;SDS011;2582;48.770;9.190;2023-07-30T04:35:20;2.37;;;2.17;;
5127;SDS011;2582;48.770;9.190;2023-07-30T04:37:46;2.43;;;2.20;;
5127;SDS011;2582;48.770;9.190;2023-07-30T04:40:11;2.87;;;2.13;;
5127;SDS011;2582;48.770;9.190;2023-07-30T04:42:37;2.47;;;2.13;;
5127;SDS011;2582;48.770;9.190;2023-07-30T04:45:03;2.63;;;2.17;;
5127;SDS011;2582;48.770;9.190;2023-07-30T04:47:29;2.30;;;1.90;;
5127;SDS011;2582;48.770;9.190;2023-07-30T04:49:54;2.50;;;2.30;;
5127;SDS011;2582;48.770;9.190;2023-07-30T04:52:20;2.50;;;2.20;;
5127;SDS011;2582;48.770;9.190;2023-07-30T04:54:46;2.60;;;2.40;;
5127;SDS011;2582;48.770;9.190;2023-07-30T04:57:11;3.00;;;2.60;;
5127;SDS011;2582;48.770;9.190;2023-07-30T04:59:37;2.70;;;2.03;;
5127;SDS011;2582;48.770;9.190;2023-07-30T05:02:02;2.70;;;2.50;;
5127;SDS011;2582;48.770;9.190;2023-07-30T05:04:28;2.73;;;2.50;;
5127;SDS011;2582;48.770;9.190;2023-07-30T05:06:53;4.30;;;2.47;;
5127;SDS011;2582;48.770;9.190;2023-07-30T05:09:19;2.50;;;2.30;;
5127;SDS011;2582;48.770;9.190;2023-07-30T05:11:44;2.17;;;1.90;;
5127;SDS011;2582;48.770;9.190;2023-07-30T05:14:10;4.33;;;2.47;;
5127;SDS011;2582;48.770;9.190;2023-07-30T05:16:35;2.60;;;2.40;;
5127;SDS011;2582;48.770;9.190;2023-07-30T05:19:02;2.53;;;2.33;;
5127;SDS011;2582;48.770;9.190;2023-07-30T05:21:28;2.93;;;2.40;;
5127;SDS011;2582;48.770;9.190;2023-07-30T05:23:53;3.40;;;2.53;;
5127;SDS011;2582;48.770;9.190;2023-07-30T05:26:19;3.00;;;2.73;;
5127;SDS011;2582;48.770;9.190;2023-07-30T05:28:44;3.00;;;2.70;;
5127;SDS011;2582;48.770;9.190;2023-07-30T05:31:10;3.33;;;2.97;;
5127;SDS011;2582;48.770;9.190;2023-07-30T05:33:35;5.17;;;3.10;;
5127;SDS011;2582;48.770;9.190;2023-07-30T05:36:01;3.03;;;2.73;;
5127;SDS011;2582;48.770;9.190;2023-07-30T05:38:27;5.00;;;2.50;;
5127;SDS011;2582;48.770;9.190;2023-07-30T05:40:52;2.80;;;2.60;;
5127;SDS011;2582;48.770;9.190;2023-07-30T05:43:18;4.27;;;3.50;;
5127;SDS011;2582;48.770;9.190;2023-07-30T05:45:43;2.97;;;2.67;;
5127;SDS011;2582;48.770;9.190;2023-07-30T05:48:09;3.00;;;2.60;;
5127;SDS011;2582;48.770;9.190;2023-07-30T05:50:35;3.03;;;2.60;;
5127;SDS011;2582;48.770;9.190;2023-07-30T05:53:00;6.77;;;3.60;;
5127;SDS011;2582;48.770;9.190;2023-07-30T05:55:26;5.43;;;2.50;;
5127;SDS011;2582;48.770;9.190;2023-07-30T05:57:52;3.20;;;2.73;;
5127;SDS011;2582;48.770;9.190;2023-07-30T06:00:18;2.60;;;2.40;;
5127;SDS011;2582;48.770;9.190;2023-07-30T06:02:44;5.13;;;3.00;;
5127;SDS011;2582;48.770;9.190;2023-07-30T06:05:09;3.30;;;2.70;;
5127;SDS011;2582;48.770;9.190;2023-07-30T06:07:35;3.20;;;2.90;;
5127;SDS011;2582;48.770;9.190;2023-07-30T06:10:01;3.33;;;3.03;;
5127;SDS011;2582;48.770;9.190;2023-07-30T06:12:26;3.47;;;3.10;;
5127;SDS011;2582;48.770;9.190;2023-07-30T06:14:52;4.40;;;2.33;;
5127;SDS011;2582;48.770;9.190;2023-07-30T06:17:17;3.57;;;2.70;;
5127;SDS011;2582;48.770;9.190;2023-07-30T06:19:43;3.40;;;2.60;;
5127;SDS011;2582;48.770;9.190;2023-07-30T06:22:08;3.90;;;2.73;;
5127;SDS011;2582;48.770;9.190;2023-07-30T06:24:34;3.20;;;2.90;;
5127;SDS011;2582;48.770;9.190;2023-07-30T06:26:59;2.80;;;2.20;;
5127;SDS011;2582;48.770;9.190;2023-07-30T06:29:25;2.47;;;1.90;;
5127;SDS011;2582;48.770;9.190;2023-07-30T06:31:50;3.10;;;2.30;;
5127;SDS011;2582;48.770;9.190;2023-07-30T06:34:16;2.50;;;2.17;;
5127;SDS011;2582;48.770;9.190;2023-07-30T06:36:42;2.43;;;2.23;;
5127;SDS011;2582;48.770;9.190;2023-07-30T06:39:07;2.53;;;2.33;;
5127;SDS011;2582;48.770;9.190;2023-07-30T06:41:33;1.80;;;1.70;;
5127;SDS011;2582;48.770;9.190;2023-07-30T06:43:58;2.90;;;1.97;;
5127;SDS011;2582;48.770;9.190;2023-07-30T06:46:24;2.63;;;1.73;;
5127;SDS011;2582;48.770;9.190;2023-07-30T06:48:49;2.87;;;2.00;;
5127;SDS011;2582;48.770;9.190;2023-07-30T06:51:17;2.63;;;1.90;;
5127;SDS011;2582;48.770;9.190;2023-07-30T06:53:44;3.50;;;2.30;;
5127;SDS011;2582;48.770;9.190;2023-07-30T06:56:10;3.93;;;1.90;;
5127;SDS011;2582;48.770;9.190;2023-07-30T06:58:35;1.80;;;1.70;;
5127;SDS011;2582;48.770;9.190;2023-07-30T07:01:01;4.13;;;1.93;;
5127;SDS011;2582;48.770;9.190;2023-07-30T07:03:26;2.00;;;1.80;;
5127;SDS011;2582;48.770;9.190;2023-07-30T07:05:52;2.70;;;1.77;;
5127;SDS011;2582;48.770;9.190;2023-07-30T07:08:20;1.57;;;1.47;;
5127;SDS011;2582;48.770;9.190;2023-07-30T07:10:46;2.03;;;1.63;;
5127;SDS011;2582;48.770;9.190;2023-07-30T07:13:11;3.00;;;2.20;;
5127;SDS011;2582;48.770;9.190;2023-07-30T07:15:40;2.33;;;1.67;;
5127;SDS011;2582;48.770;9.190;2023-07-30T07:18:06;2.40;;;1.70;;
5127;SDS011;2582;48.770;9.190;2023-07-30T07:20:31;2.30;;;1.77;;
5127;SDS011;2582;48.770;9.190;2023-07-30T07:22:57;1.80;;;1.70;;
5127;SDS011;2582;48.770;9.190;2023-07-30T07:25:22;3.00;;;1.80;;
5127;SDS011;2582;48.770;9.190;2023-07-30T07:27:49;1.50;;;1.40;;
5127;SDS011;2582;48.770;9.190;2023-07-30T07:30:14;2.33;;;1.60;;
5127;SDS011;2582;48.770;9.190;2023-07-30T07:32:40;2.40;;;1.70;;
5127;SDS011;2582;48.770;9.190;2023-07-30T07:35:06;1.60;;;1.50;;
5127;SDS011;2582;48.770;9.190;2023-07-30T07:37:32;2.77;;;1.70;;
5127;SDS011;2582;48.770;9.190;2023-07-30T07:39:58;2.43;;;1.87;;
5127;SDS011;2582;48.770;9.190;2023-07-30T07:42:23;2.63;;;1.80;;
5127;SDS011;2582;48.770;9.190;2023-07-30T07:44:49;3.83;;;1.57;;
5127;SDS011;2582;48.770;9.190;2023-07-30T07:47:15;2.10;;;1.70;;
5127;SDS011;2582;48.770;9.190;2023-07-30T07:49:40;2.80;;;1.47;;
5127;SDS011;2582;48.770;9.190;2023-07-30T07:52:06;2.10;;;1.80;;
5127;SDS011;2582;48.770;9.190;2023-07-30T07:54:32;3.40;;;2.07;;
5127;SDS011;2582;48.770;9.190;2023-07-30T07:56:57;2.60;;;1.37;;
5127;SDS011;2582;48.770;9.190;2023-07-30T07:59:23;2.00;;;1.83;;
5127;SDS011;2582;48.770;9.190;2023-07-30T08:01:49;1.73;;;1.63;;
5127;SDS011;2582;48.770;9.190;2023-07-30T08:04:15;2.40;;;1.20;;
5127;SDS011;2582;48.770;9.190;2023-07-30T08:06:40;1.40;;;1.20;;
5127;SDS011;2582;48.770;9.190;2023-07-30T08:09:06;2.00;;;1.70;;
5127;SDS011;2582;48.770;9.190;2023-07-30T08:11:31;1.90;;;1.50;;
5127;SDS011;2582;48.770;9.190;2023-07-30T08:13:57;2.00;;;1.90;;
5127;SDS011;2582;48.770;9.190;2023-07-30T08:16:22;1.80;;;1.70;;
5127;SDS011;2582;48.770;9.190;2023-07-30T08:18:48;1.60;;;1.50;;
5127;SDS011;2582;48.770;9.190;2023-07-30T08:21:14;1.93;;;1.40;;
5127;SDS011;2582;48.770;9.190;2023-07-30T08:23:42;3.77;;;1.30;;
5127;SDS011;2582;48.770;9.190;2023-07-30T08:26:08;1.73;;;1.50;;
5127;SDS011;2582;48.770;9.190;2023-07-30T08:28:33;1.30;;;1.13;;
5127;SDS011;2582;48.770;9.190;2023-07-30T08:30:59;1.67;;;1.57;;
5127;SDS011;2582;48.770;9.190;2023-07-30T08:33:27;1.50;;;1.40;;
5127;SDS011;2582;48.770;9.190;2023-07-30T08:35:55;2.23;;;2.03;;
5127;SDS011;2582;48.770;9.190;2023-07-30T08:38:22;3.20;;;1.70;;
5127;SDS011;2582;48.770;9.190;2023-07-30T08:40:48;1.87;;;1.47;;
5127;SDS011;2582;48.770;9.190;2023-07-30T08:43:13;2.20;;;1.50;;
5127;SDS011;2582;48.770;9.190;2023-07-30T08:45:39;1.60;;;1.47;;
5127;SDS011;2582;48.770;9.190;2023-07-30T08:48:05;1.47;;;1.27;;
5127;SDS011;2582;48.770;9.190;2023-07-30T08:50:30;1.80;;;1.60;;
5127;SDS011;2582;48.770;9.190;2023-07-30T08:52:57;2.23;;;2.03;;
5127;SDS011;2582;48.770;9.190;2023-07-30T08:55:25;2.27;;;2.00;;
5127;SDS011;2582;48.770;9.190;2023-07-30T08:57:54;1.90;;;1.57;;
5127;SDS011;2582;48.770;9.190;2023-07-30T09:00:21;2.10;;;1.73;;
5127;SDS011;2582;48.770;9.190;2023-07-30T09:02:58;2.03;;;1.43;;
5127;SDS011;2582;48.770;9.190;2023-07-30T09:05:25;2.37;;;1.80;;
5127;SDS011;2582;48.770;9.190;2023-07-30T09:07:53;1.77;;;1.67;;
5127;SDS011;2582;48.770;9.190;2023-07-30T09:10:18;1.93;;;1.73;;
5127;SDS011;2582;48.770;9.190;2023-07-30T09:12:44;2.43;;;1.60;;
5127;SDS011;2582;48.770;9.190;2023-07-30T09:15:09;1.50;;;1.40;;
5127;SDS011;2582;48.770;9.190;2023-07-30T09:17:35;1.40;;;1.30;;
5127;SDS011;2582;48.770;9.190;2023-07-30T09:20:02;3.03;;;1.90;;
5127;SDS011;2582;48.770;9.190;2023-07-30T09:22:29;1.70;;;1.50;;
5127;SDS011;2582;48.770;9.190;2023-07-30T09:25:01;1.53;;;1.40;;
5127;SDS011;2582;48.770;9.190;2023-07-30T09:27:28;2.00;;;1.80;;
5127;SDS011;2582;48.770;9.190;2023-07-30T09:29:55;3.53;;;2.50;;
5127;SDS011;2582;48.770;9.190;2023-07-30T09:32:28;1.50;;;1.40;;
5127;SDS011;2582;48.770;9.190;2023-07-30T09:34:55;2.10;;;1.80;;
5127;SDS011;2582;48.770;9.190;2023-07-30T09:37:29;2.30;;;1.90;;
5127;SDS011;2582;48.770;9.190;2023-07-30T09:39:57;2.57;;;1.93;;
5127;SDS011;2582;48.770;9.190;2023-07-30T09:42:26;2.13;;;1.93;;
5127;SDS011;2582;48.770;9.190;2023-07-30T09:44:52;2.10;;;1.90;;
5127;SDS011;2582;48.770;9.190;2023-07-30T09:47:18;3.30;;;2.20;;
5127;SDS011;2582;48.770;9.190;2023-07-30T09:49:43;2.83;;;2.10;;
5127;SDS011;2582;48.770;9.190;2023-07-30T09:52:09;2.33;;;1.90;;
5127;SDS011;2582;48.770;9.190;2023-07-30T09:54:36;2.10;;;1.90;;
5127;SDS011;2582;48.770;9.190;2023-07-30T09:57:04;3.13;;;2.00;;
5127;SDS011;2582;48.770;9.190;2023-07-30T09:59:30;2.87;;;2.03;;
5127;SDS011;2582;48.770;9.190;2023-07-30T10:01:56;3.37;;;2.40;;
5127;SDS011;2582;48.770;9.190;2023-07-30T10:04:23;2.67;;;2.20;;
5127;SDS011;2582;48.770;9.190;2023-07-30T10:06:52;4.33;;;2.17;;
5127;SDS011;2582;48.770;9.190;2023-07-30T10:09:23;2.70;;;1.93;;
5127;SDS011;2582;48.770;9.190;2023-07-30T10:11:53;2.60;;;2.10;;
5127;SDS011;2582;48.770;9.190;2023-07-30T10:14:21;3.00;;;2.27;;
5127;SDS011;2582;48.770;9.190;2023-07-30T10:16:55;2.27;;;2.07;;
5127;SDS011;2582;48.770;9.190;2023-07-30T10:19:27;3.53;;;1.93;;
5127;SDS011;2582;48.770;9.190;2023-07-30T10:22:27;2.90;;;2.53;;
5127;SDS011;2582;48.770;9.190;2023-07-30T10:25:02;2.23;;;2.03;;
5127;SDS011;2582;48.770;9.190;2023-07-30T10:27:36;3.97;;;2.03;;
5127;SDS011;2582;48.770;9.190;2023-07-30T10:30:17;3.00;;;1.90;;
5127;SDS011;2582;48.770;9.190;2023-07-30T10:35:45;3.53;;;2.30;;
5127;SDS011;2582;48.770;9.190;2023-07-30T10:46:02;2.10;;;1.90;;
5127;SDS011;2582;48.770;9.190;2023-07-30T10:48:34;3.20;;;2.23;;
5127;SDS011;2582;48.770;9.190;2023-07-30T10:51:03;3.10;;;2.47;;
5127;SDS011;2582;48.770;9.190;2023-07-30T10:53:30;3.03;;;2.30;;
5127;SDS011;2582;48.770;9.190;2023-07-30T10:56:00;5.40;;;3.00;;
5127;SDS011;2582;48.770;9.190;2023-07-30T10:58:28;2.87;;;2.37;;
5127;SDS011;2582;48.770;9.190;2023-07-30T11:00:57;2.83;;;2.40;;
5127;SDS011;2582;48.770;9.190;2023-07-30T11:03:26;2.87;;;2.33;;
5127;SDS011;2582;48.770;9.190;2023-07-30T11:05:52;3.07;;;2.67;;
5127;SDS011;2582;48.770;9.190;2023-07-30T11:08:18;2.20;;;2.00;;
5127;SDS011;2582;48.770;9.190;2023-07-30T11:10:45;2.63;;;2.03;;
5127;SDS011;2582;48.770;9.190;2023-07-30T11:13:13;2.60;;;2.40;;
5127;SDS011;2582;48.770;9.190;2023-07-30T11:15:43;3.00;;;2.50;;
5127;SDS011;2582;48.770;9.190;2023-07-30T11:18:09;2.60;;;2.37;;
5127;SDS011;2582;48.770;9.190;2023-07-30T11:20:36;2.47;;;1.93;;
5127;SDS011;2582;48.770;9.190;2023-07-30T11:23:03;2.80;;;2.40;;
5127;SDS011;2582;48.770;9.190;2023-07-30T11:25:45;2.10;;;1.83;;
5127;SDS011;2582;48.770;9.190;2023-07-30T11:28:11;3.10;;;2.53;;
5127;SDS011;2582;48.770;9.190;2023-07-30T11:30:37;2.20;;;1.80;;
5127;SDS011;2582;48.770;9.190;2023-07-30T11:33:03;2.53;;;2.13;;
5127;SDS011;2582;48.770;9.190;2023-07-30T11:35:28;2.63;;;1.80;;
5127;SDS011;2582;48.770;9.190;2023-07-30T11:37:54;2.87;;;2.53;;
5127;SDS011;2582;48.770;9.190;2023-07-30T11:40:20;2.97;;;2.27;;
5127;SDS011;2582;48.770;9.190;2023-07-30T11:42:46;4.20;;;2.13;;
5127;SDS011;2582;48.770;9.190;2023-07-30T11:45:19;2.67;;;1.70;;
5127;SDS011;2582;48.770;9.190;2023-07-30T11:47:46;2.80;;;2.13;;
5127;SDS011;2582;48.770;9.190;2023-07-30T11:50:12;3.30;;;2.13;;
5127;SDS011;2582;48.770;9.190;2023-07-30T11:52:50;3.27;;;2.13;;
5127;SDS011;2582;48.770;9.190;2023-07-30T11:55:20;4.10;;;2.03;;
5127;SDS011;2582;48.770;9.190;2023-07-30T11:57:46;2.70;;;2.03;;
5127;SDS011;2582;48.770;9.190;2023-07-30T12:00:11;2.23;;;2.03;;
5127;SDS011;2582;48.770;9.190;2023-07-30T12:02:38;2.67;;;2.40;;
5127;SDS011;2582;48.770;9.190;2023-07-30T12:05:04;2.70;;;2.10;;
5127;SDS011;2582;48.770;9.190;2023-07-30T12:07:30;3.23;;;2.20;;
5127;SDS011;2582;48.770;9.190;2023-07-30T12:10:10;3.13;;;2.00;;
5127;SDS011;2582;48.770;9.190;2023-07-30T12:12:44;2.53;;;2.33;;
5127;SDS011;2582;48.770;9.190;2023-07-30T12:15:11;2.43;;;2.10;;
5127;SDS011;2582;48.770;9.190;2023-07-30T12:17:37;2.23;;;2.03;;
5127;SDS011;2582;48.770;9.190;2023-07-30T12:20:03;2.63;;;2.07;;
5127;SDS011;2582;48.770;9.190;2023-07-30T12:22:32;2.50;;;2.30;;
5127;SDS011;2582;48.770;9.190;2023-07-30T12:24:59;2.53;;;2.10;;
5127;SDS011;2582;48.770;9.190;2023-07-30T12:27:25;3.00;;;2.33;;
5127;SDS011;2582;48.770;9.190;2023-07-30T12:29:51;3.67;;;2.03;;
5127;SDS011;2582;48.770;9.190;2023-07-30T12:32:17;3.40;;;2.00;;
5127;SDS011;2582;48.770;9.190;2023-07-30T12:34:43;2.33;;;1.83;;
5127;SDS011;2582;48.770;9.190;2023-07-30T12:37:09;2.80;;;2.10;;
5127;SDS011;2582;48.770;9.190;2023-07-30T12:39:34;3.00;;;2.33;;
5127;SDS011;2582;48.770;9.190;2023-07-30T12:42:00;2.17;;;1.97;;
5127;SDS011;2582;48.770;9.190;2023-07-30T12:44:25;3.10;;;2.20;;
5127;SDS011;2582;48.770;9.190;2023-07-30T12:46:51;2.30;;;2.07;;
5127;SDS011;2582;48.770;9.190;2023-07-30T12:49:17;2.33;;;1.87;;
5127;SDS011;2582;48.770;9.190;2023-07-30T12:51:43;2.20;;;2.00;;
5127;SDS011;2582;48.770;9.190;2023-07-30T12:54:08;2.37;;;2.10;;
5127;SDS011;2582;48.770;9.190;2023-07-30T12:56:34;2.97;;;2.13;;
5127;SDS011;2582;48.770;9.190;2023-07-30T12:59:00;3.20;;;2.37;;
5127;SDS011;2582;48.770;9.190;2023-07-30T13:01:26;4.27;;;2.10;;
5127;SDS011;2582;48.770;9.190;2023-07-30T13:03:51;3.00;;;2.70;;
5127;SDS011;2582;48.770;9.190;2023-07-30T13:06:20;2.20;;;1.97;;
5127;SDS011;2582;48.770;9.190;2023-07-30T13:08:46;2.43;;;1.93;;
5127;SDS011;2582;48.770;9.190;2023-07-30T13:11:12;3.60;;;2.10;;
5127;SDS011;2582;48.770;9.190;2023-07-30T13:13:38;3.00;;;1.57;;
5127;SDS011;2582;48.770;9.190;2023-07-30T13:16:03;3.33;;;2.33;;
5127;SDS011;2582;48.770;9.190;2023-07-30T13:18:29;3.90;;;2.40;;
5127;SDS011;2582;48.770;9.190;2023-07-30T13:20:54;2.40;;;2.20;;
5127;SDS011;2582;48.770;9.190;2023-07-30T13:23:20;2.93;;;2.50;;
5127;SDS011;2582;48.770;9.190;2023-07-30T13:25:45;2.50;;;2.00;;
5127;SDS011;2582;48.770;9.190;2023-07-30T13:28:11;2.80;;;2.03;;
5127;SDS011;2582;48.770;9.190;2023-07-30T13:30:37;3.93;;;2.10;;
5127;SDS011;2582;48.770;9.190;2023-07-30T13:33:02;3.07;;;1.50;;
5127;SDS011;2582;48.770;9.190;2023-07-30T13:35:28;5.27;;;2.70;;
5127;SDS011;2582;48.770;9.190;2023-07-30T13:37:53;2.70;;;1.80;;
5127;SDS011;2582;48.770;9.190;2023-07-30T13:40:19;2.20;;;2.00;;
5127;SDS011;2582;48.770;9.190;2023-07-30T13:42:44;4.60;;;2.00;;
5127;SDS011;2582;48.770;9.190;2023-07-30T13:45:10;4.97;;;3.27;;
5127;SDS011;2582;48.770;9.190;2023-07-30T13:47:35;2.70;;;1.90;;
5127;SDS011;2582;48.770;9.190;2023-07-30T13:50:01;4.00;;;2.10;;
5127;SDS011;2582;48.770;9.190;2023-07-30T13:52:27;2.33;;;2.13;;
5127;SDS011;2582;48.770;9.190;2023-07-30T13:54:52;6.33;;;2.33;;
5127;SDS011;2582;48.770;9.190;2023-07-30T13:57:24;3.97;;;2.90;;
5127;SDS011;2582;48.770;9.190;2023-07-30T13:59:50;3.00;;;2.33;;
5127;SDS011;2582;48.770;9.190;2023-07-30T14:02:16;2.00;;;1.80;;
5127;SDS011;2582;48.770;9.190;2023-07-30T14:04:42;3.50;;;2.00;;
5127;SDS011;2582;48.770;9.190;2023-07-30T14:07:07;2.80;;;1.80;;
5127;SDS011;2582;48.770;9.190;2023-07-30T14:09:33;2.20;;;2.00;;
5127;SDS011;2582;48.770;9.190;2023-07-30T14:12:01;2.90;;;1.97;;
5127;SDS011;2582;48.770;9.190;2023-07-30T14:14:27;2.10;;;1.57;;
5127;SDS011;2582;48.770;9.190;2023-07-30T14:16:53;2.90;;;1.90;;
5127;SDS011;2582;48.770;9.190;2023-07-30T14:19:19;3.63;;;2.23;;
5127;SDS011;2582;48.770;9.190;2023-07-30T14:21:45;3.10;;;2.30;;
5127;SDS011;2582;48.770;9.190;2023-07-30T14:24:11;4.43;;;1.80;;
5127;SDS011;2582;48.770;9.190;2023-07-30T14:26:38;3.27;;;2.07;;
5127;SDS011;2582;48.770;9.190;2023-07-30T14:29:04;5.53;;;2.00;;
5127;SDS011;2582;48.770;9.190;2023-07-30T14:31:29;4.10;;;2.37;;
5127;SDS011;2582;48.770;9.190;2023-07-30T14:33:55;5.57;;;2.37;;
5127;SDS011;2582;48.770;9.190;2023-07-30T14:36:20;3.40;;;1.80;;
5127;SDS011;2582;48.770;9.190;2023-07-30T14:38:46;2.73;;;2.33;;
5127;SDS011;2582;48.770;9.190;2023-07-30T14:41:11;2.17;;;1.67;;
5127;SDS011;2582;48.770;9.190;2023-07-30T14:43:37;3.63;;;1.93;;
5127;SDS011;2582;48.770;9.190;2023-07-30T14:46:03;2.10;;;1.90;;
5127;SDS011;2582;48.770;9.190;2023-07-30T14:48:28;2.50;;;1.93;;
5127;SDS011;2582;48.770;9.190;2023-07-30T14:50:54;2.47;;;1.53;;
5127;SDS011;2582;48.770;9.190;2023-07-30T14:53:19;2.40;;;1.70;;
5127;SDS011;2582;48.770;9.190;2023-07-30T14:55:45;2.30;;;1.60;;
5127;SDS011;2582;48.770;9.190;2023-07-30T14:58:11;4.83;;;2.00;;
5127;SDS011;2582;48.770;9.190;2023-07-30T15:00:36;3.20;;;1.90;;
5127;SDS011;2582;48.770;9.190;2023-07-30T15:03:02;1.93;;;1.53;;
5127;SDS011;2582;48.770;9.190;2023-07-30T15:05:29;2.80;;;1.87;;
5127;SDS011;2582;48.770;9.190;2023-07-30T15:07:55;4.57;;;2.00;;
5127;SDS011;2582;48.770;9.190;2023-07-30T15:10:21;2.73;;;2.10;;
5127;SDS011;2582;48.770;9.190;2023-07-30T15:12:46;4.87;;;1.90;;
5127;SDS011;2582;48.770;9.190;2023-07-30T15:15:12;3.73;;;1.93;;
5127;SDS011;2582;48.770;9.190;2023-07-30T15:17:38;4.27;;;1.87;;
5127;SDS011;2582;48.770;9.190;2023-07-30T15:20:04;5.60;;;2.23;;